Agios Nikolas — SVAV5 — position and weather

sailwx.info

Track history (hours):
 
Tides and Currents Weather Stations Pressure Air Temp Water Temp Dewpoint Dewpoint Depression Visibility Wind Speed Wind Dir Waves Ship Positions

Agios Nikolas

Last reported at 2015-Dec-29 13:31 UTC. Time now 2016-Feb-07 04:03 UTC.
Position N 01°54' E 102°22'.
Warning: this ship's position is 39 days out of date.

Length 225 m; draft 13.7 m.

Type: Cargo ship. MMSI: 240963000.

Date/timePositionNaut miles runAvg speedWind from/ knotsBaromVisibWave heightAir tempDewpointWater temp
2015-Dec-29 13:31N 01°54' E 102°22'1010.8
2015-Dec-29 12:34N 01°50' E 102°31'1212.0
2015-Dec-29 11:32N 01°45' E 102°42'6112.0
2015-Dec-29 06:25N 01°12' E 103°34'910.4
2015-Dec-29 05:33N 01°09' E 103°43'1111.2
2015-Dec-29 04:34N 01°13' E 103°53'9 1.1
2015-Dec-28 20:29N 01°17' E 104°01'0 0.0
2015-Dec-28 19:29N 01°17' E 104°01'0 0.0
2015-Dec-28 15:26N 01°17' E 104°01'2 2.7
2015-Dec-28 14:33N 01°16' E 103°59'  
Track history (hours):
 
Tides and Currents Weather Stations Pressure Air Temp Water Temp Dewpoint Dewpoint Depression Visibility Wind Speed Wind Dir Waves Ship Positions

Agios Nikolas

Last reported at 2015-Dec-29 13:31 UTC. Time now 2016-Feb-07 04:03 UTC.
Position N 01°54' E 102°22'.
Warning: this ship's position is 39 days out of date.

Length 225 m; draft 13.7 m.

Type: Cargo ship. MMSI: 240963000.

Date/timePositionNaut miles runAvg speedWind from/ knotsBaromVisibWave heightAir tempDewpointWater temp
2015-Dec-29 13:31N 01°54' E 102°22'1010.8
2015-Dec-29 12:34N 01°50' E 102°31'1212.0
2015-Dec-29 11:32N 01°45' E 102°42'6112.0
2015-Dec-29 06:25N 01°12' E 103°34'910.4
2015-Dec-29 05:33N 01°09' E 103°43'1111.2
2015-Dec-29 04:34N 01°13' E 103°53'9 1.1
2015-Dec-28 20:29N 01°17' E 104°01'0 0.0
2015-Dec-28 19:29N 01°17' E 104°01'0 0.0
2015-Dec-28 15:26N 01°17' E 104°01'2 2.7
2015-Dec-28 14:33N 01°16' E 103°59'  

Dump ship's entire track history